Terminal Aerodrome Forecast
Issued by NWS

Home | Current Version | Previous Version | Text Only | Print | Product List | Glossary On
Versions: 1 2 3 4 5 6 7 8 9 10 11 12 13 14 15 16 17 18
695
FTUS42 KFFC 092338
TAFPDK
TAF
KPDK 092338Z 1000/1024 30010KT P6SM SCT030 OVC060
      TEMPO 1000/1004 6SM -SHSN BKN030
     FM100400 30008KT P6SM VCSH BKN025
     FM101300 29011KT P6SM SCT025 OVC050
     FM101500 29014G24KT P6SM OVC050
     FM101800 29014G24KT P6SM SCT060=

USA.gov is the U.S. government's official web portal to all federal, state and local government web resources and services.